LFBM 211130Z AUTO 03007KT 350V060 9999 BKN020 05/01 Q1034 BECMG BKN010

ElémentsDécodage
LFBM Station météo située sur l'aérodrome de MONT-DE-MARSAN
211130Z émis le 21 du mois à 11h30 UTC
AUTO Bulletin édité par un automate
03007KT vent du 030°, 07 noeuds
350V060 vent de direction variable entre 350° et 060°
9999 visibilité horizontale supérieure à 10 Km
BKN020 nuages morcelés (5/8 à 7/8) à 2000 pieds
05/01 température 05°C, point de rosée 01°C
 soit une humidité relative de 75%
Q1034 la pression au niveau de la mer (QNH) est de 1034 hPa
BECMG fluctuation du temps prévue
BKN010 nuages morcelés (5/8 à 7/8) à 1000 pieds